KIMS

Madison Municipal Airport

Madison, Indiana, USA
METAR KIMS 221535Z AUTO 19004KT 10SM SCT017 BKN024 OVC035 25/20 A3008 RMK AO1
Observed Flight Rules
May-22 @ 15:35 UTC (14 minutes ago) Marginal Visual Flight Rules
Wind Visibility Clouds
190° at 4 knots 10 miles
  • Scattered at 1,700' AGL
  • Broken at 2,400' AGL
  • Overcast at 3,500' AGL
Temperatures Readings
Current 25°C / 77°F
Dewpoint 20°C / 68°F
Humidity 74%
Altimeter 30.08" Hg
Pressure 1019 hPa
Elevation 250
METAR KIMS 221535Z AUTO 19004KT 10SM SCT017 BKN024 OVC035 25/20 A3008 RMK AO1
Observed Flight Rules
May-22 @ 15:35 UTC
(14 minutes ago)
MVFR
Wind Visibility
190° at 4 knots 10 miles
Clouds
  • Scattered at 1,700' AGL
  • Broken at 2,400' AGL
  • Overcast at 3,500' AGL
Temperature Dewpoint
25°C / 77°F 20°C / 68°F
Humidity Altimeter Pressure
74% 30.08" Hg 1019 hPa